Time;durP1;ratioP1;P1;durP2;ratioP2;P2;SDS_P1;SDS_P2;PMS_P1;PMS_P2;Temp;Humidity;BMP_temperature;BMP_pressure;BME280_temperature;BME280_humidity;BME280_pressure;Samples;Min_cycle;Max_cycle;Signal;HPM_P1;HPM_P2
2021/10/20 00:00:24;;;;;;;9.38;8.48;;;14.70;99.90;;;;;;4110165;28;20037;-74
2021/10/20 00:02:25;;;;;;;7.82;6.72;;;14.70;99.90;;;;;;4113381;28;20039;-73
2021/10/20 00:04:26;;;;;;;10.43;7.72;;;14.80;99.90;;;;;;4110069;28;20035;-73
2021/10/20 00:06:26;;;;;;;10.10;8.18;;;14.90;99.90;;;;;;4104196;28;20390;-73
2021/10/20 00:08:27;;;;;;;9.88;8.23;;;14.90;99.90;;;;;;4111789;28;20589;-73
2021/10/20 00:10:28;;;;;;;10.70;8.43;;;14.80;99.90;;;;;;4114285;28;20455;-74
2021/10/20 00:12:29;;;;;;;9.50;7.75;;;14.60;99.90;;;;;;4101782;28;20046;-74
2021/10/20 00:14:30;;;;;;;12.43;7.10;;;14.70;99.90;;;;;;4124731;28;20596;-74
2021/10/20 00:16:31;;;;;;;9.52;7.13;;;14.90;99.90;;;;;;4098553;28;20046;-74
2021/10/20 00:18:32;;;;;;;12.27;7.90;;;14.90;99.90;;;;;;4111501;28;20095;-74
2021/10/20 00:20:33;;;;;;;13.32;8.63;;;14.90;99.90;;;;;;4111222;28;20035;-74
2021/10/20 00:22:36;;;;;;;9.15;7.60;;;14.80;99.90;;;;;;4112541;28;20072;-75
2021/10/20 00:24:37;;;;;;;10.35;7.10;;;14.80;99.90;;;;;;4128655;28;20038;-74
2021/10/20 00:26:38;;;;;;;8.65;7.55;;;14.80;99.90;;;;;;4113878;28;20043;-72
2021/10/20 00:28:39;;;;;;;9.30;7.72;;;14.90;99.90;;;;;;4110949;28;20070;-74
2021/10/20 00:30:40;;;;;;;9.63;6.72;;;14.90;99.90;;;;;;4110601;28;20138;-73
2021/10/20 00:32:41;;;;;;;9.38;6.93;;;15.00;99.90;;;;;;4116549;28;20050;-74
2021/10/20 00:34:42;;;;;;;10.85;7.03;;;14.90;99.90;;;;;;4117833;28;20034;-74
2021/10/20 00:36:43;;;;;;;8.23;7.43;;;14.90;99.90;;;;;;4126259;28;20051;-73
2021/10/20 00:38:44;;;;;;;7.65;6.57;;;14.80;99.90;;;;;;4113119;28;20039;-73
2021/10/20 00:40:45;;;;;;;8.32;7.15;;;14.80;99.90;;;;;;4111470;28;20035;-72
2021/10/20 00:42:46;;;;;;;9.43;7.25;;;14.90;99.90;;;;;;4104566;28;20050;-73
2021/10/20 00:44:51;;;;;;;10.82;6.80;;;14.90;99.90;;;;;;4119422;28;20793;-73
2021/10/20 00:46:51;;;;;;;13.88;6.95;;;14.80;99.90;;;;;;4123518;28;20034;-73
2021/10/20 00:48:53;;;;;;;7.82;7.03;;;14.80;99.90;;;;;;4113287;28;20031;-74
2021/10/20 00:50:53;;;;;;;10.15;6.97;;;14.90;99.90;;;;;;4112571;28;20495;-73
2021/10/20 00:52:54;;;;;;;8.13;7.10;;;14.90;99.90;;;;;;4114342;28;20039;-73
2021/10/20 00:54:56;;;;;;;9.93;7.15;;;14.90;99.90;;;;;;4126914;28;20049;-73
2021/10/20 00:56:57;;;;;;;9.48;7.30;;;14.90;99.90;;;;;;4098146;28;20042;-73
2021/10/20 00:58:58;;;;;;;7.22;6.50;;;14.90;99.90;;;;;;4100744;28;20035;-73
2021/10/20 01:00:59;;;;;;;8.20;7.10;;;15.00;99.90;;;;;;4123716;28;20041;-73
2021/10/20 01:03:00;;;;;;;11.85;7.85;;;15.00;99.90;;;;;;4101627;28;20031;-73
2021/10/20 01:05:02;;;;;;;10.68;7.53;;;14.90;99.90;;;;;;4121846;28;20034;-72
2021/10/20 01:07:05;;;;;;;10.25;6.70;;;14.80;99.90;;;;;;4096606;28;20541;-73
2021/10/20 01:09:06;;;;;;;8.88;7.38;;;14.80;99.90;;;;;;4112828;28;20421;-73
2021/10/20 01:11:06;;;;;;;12.70;7.75;;;14.90;99.90;;;;;;4112921;28;20034;-73
2021/10/20 01:13:07;;;;;;;9.23;7.00;;;14.90;99.90;;;;;;4098653;28;20035;-73
2021/10/20 01:15:16;;;;;;;7.70;6.90;;;14.90;99.90;;;;;;4097942;28;20054;-73
2021/10/20 01:17:18;;;;;;;9.50;8.07;;;14.80;99.90;;;;;;4110694;28;20039;-73
2021/10/20 01:19:19;;;;;;;8.32;7.40;;;14.80;99.90;;;;;;4110925;28;20065;-73
2021/10/20 01:21:22;;;;;;;7.47;6.57;;;14.70;99.90;;;;;;4092665;28;20688;-73
2021/10/20 01:23:23;;;;;;;10.20;7.68;;;14.80;99.90;;;;;;4117183;28;20074;-73
2021/10/20 01:25:25;;;;;;;8.13;6.00;;;14.80;99.90;;;;;;4098476;28;20450;-73
2021/10/20 01:27:26;;;;;;;11.68;7.47;;;14.80;99.90;;;;;;4113469;28;20129;-73
2021/10/20 01:29:27;;;;;;;8.60;7.50;;;14.80;99.90;;;;;;4116134;28;20038;-73
2021/10/20 01:31:28;;;;;;;8.48;7.43;;;14.80;99.90;;;;;;4105375;28;20042;-72
2021/10/20 01:33:28;;;;;;;9.13;7.18;;;14.90;99.90;;;;;;4102855;28;20035;-72
2021/10/20 01:35:29;;;;;;;11.55;7.07;;;14.90;99.90;;;;;;4108740;28;20053;-72
2021/10/20 01:37:30;;;;;;;8.52;7.15;;;14.80;99.90;;;;;;4102145;28;20035;-72
2021/10/20 01:39:33;;;;;;;9.27;7.15;;;14.80;99.90;;;;;;4121415;28;20832;-73
2021/10/20 01:41:35;;;;;;;11.82;7.72;;;14.70;99.90;;;;;;4096385;28;20078;-73
2021/10/20 01:43:48;;;;;;;9.35;7.45;;;14.60;99.90;;;;;;4114917;28;20038;-73
2021/10/20 01:45:49;;;;;;;12.40;7.43;;;14.60;99.90;;;;;;4127090;28;20035;-72
2021/10/20 01:47:50;;;;;;;9.20;7.63;;;14.70;99.90;;;;;;4113144;28;20116;-72
2021/10/20 01:49:51;;;;;;;9.68;7.75;;;14.70;99.90;;;;;;4113981;28;20050;-73
2021/10/20 01:51:52;;;;;;;9.85;8.05;;;14.70;99.90;;;;;;4113816;28;20039;-73
2021/10/20 01:53:53;;;;;;;8.35;7.55;;;14.80;99.90;;;;;;4097305;28;20119;-73
2021/10/20 01:55:54;;;;;;;7.78;6.97;;;14.80;99.90;;;;;;4114237;28;20552;-73
2021/10/20 01:57:55;;;;;;;9.38;8.13;;;14.80;99.90;;;;;;4117068;28;20039;-73
2021/10/20 01:59:56;;;;;;;10.35;7.63;;;14.70;99.90;;;;;;4113024;28;20118;-71
2021/10/20 02:01:57;;;;;;;9.98;7.70;;;14.70;99.90;;;;;;4116767;28;20035;-74
2021/10/20 02:03:57;;;;;;;11.00;7.82;;;14.70;99.90;;;;;;4099979;28;20043;-73
2021/10/20 02:05:58;;;;;;;8.80;6.97;;;14.70;99.90;;;;;;4129372;28;20090;-73
2021/10/20 02:07:58;;;;;;;11.73;7.18;;;14.80;99.90;;;;;;4111633;28;20039;-73
2021/10/20 02:09:59;;;;;;;7.20;6.30;;;14.70;99.90;;;;;;4104225;28;20034;-72
2021/10/20 02:12:00;;;;;;;9.82;7.10;;;14.80;99.90;;;;;;4108104;28;20135;-73
2021/10/20 02:14:04;;;;;;;12.63;8.23;;;14.80;99.90;;;;;;4121011;28;20406;-73
2021/10/20 02:16:05;;;;;;;9.95;7.88;;;14.90;99.90;;;;;;4115845;28;20497;-73
2021/10/20 02:18:06;;;;;;;9.02;6.75;;;14.80;99.90;;;;;;4108669;28;20142;-73
2021/10/20 02:20:11;;;;;;;8.45;7.55;;;14.90;99.90;;;;;;4111957;28;20561;-72
2021/10/20 02:22:12;;;;;;;12.52;7.30;;;14.90;99.90;;;;;;4092361;28;20035;-73
2021/10/20 02:24:13;;;;;;;8.73;7.05;;;14.90;99.90;;;;;;4105291;28;20528;-72
2021/10/20 02:26:14;;;;;;;10.65;7.13;;;14.90;99.90;;;;;;4108656;28;20038;-72
2021/10/20 02:28:15;;;;;;;10.95;6.70;;;14.80;99.90;;;;;;4099324;28;20046;-73
2021/10/20 02:30:16;;;;;;;8.27;7.22;;;14.90;99.90;;;;;;4111236;28;20098;-72
2021/10/20 02:32:17;;;;;;;12.13;7.70;;;14.90;99.90;;;;;;4129930;28;20144;-73
2021/10/20 02:34:20;;;;;;;7.53;6.70;;;14.90;99.90;;;;;;4115831;28;20093;-72
2021/10/20 02:36:21;;;;;;;11.13;7.53;;;14.90;99.90;;;;;;4100745;28;20421;-73
2021/10/20 02:38:22;;;;;;;8.32;6.95;;;14.90;99.90;;;;;;4128170;28;20049;-72
2021/10/20 02:40:23;;;;;;;10.55;7.18;;;14.80;99.90;;;;;;4084345;28;20028;-72
2021/10/20 02:42:24;;;;;;;9.80;7.28;;;14.80;99.90;;;;;;4114089;28;20438;-72
2021/10/20 02:44:25;;;;;;;9.85;7.03;;;14.80;99.90;;;;;;4115829;28;20038;-73
2021/10/20 02:46:25;;;;;;;10.55;7.63;;;14.90;99.90;;;;;;4116662;28;20058;-72
2021/10/20 02:48:26;;;;;;;7.28;6.55;;;14.90;99.90;;;;;;4115389;28;20118;-72
2021/10/20 02:50:30;;;;;;;7.70;6.38;;;14.80;99.90;;;;;;4099861;28;20456;-72
2021/10/20 02:52:30;;;;;;;9.68;7.40;;;14.80;99.90;;;;;;4116200;28;20039;-73
2021/10/20 02:54:31;;;;;;;8.68;7.22;;;14.80;99.90;;;;;;4108515;28;20119;-72
2021/10/20 02:56:33;;;;;;;10.32;7.45;;;14.70;99.90;;;;;;4119113;28;20063;-73
2021/10/20 02:58:33;;;;;;;9.80;7.07;;;14.70;99.90;;;;;;4109642;28;20039;-73
2021/10/20 03:00:34;;;;;;;8.90;7.43;;;14.70;99.90;;;;;;4120729;28;20048;-74
2021/10/20 03:02:35;;;;;;;7.80;6.80;;;14.80;99.90;;;;;;4107285;28;20069;-73
2021/10/20 03:04:36;;;;;;;9.80;7.18;;;14.80;99.90;;;;;;4107436;28;20062;-73
2021/10/20 03:06:38;;;;;;;9.73;7.72;;;14.80;99.90;;;;;;4098733;28;20043;-73
2021/10/20 03:08:39;;;;;;;10.10;7.80;;;14.80;99.90;;;;;;4116404;28;20172;-73
2021/10/20 03:10:40;;;;;;;10.05;7.63;;;14.70;99.90;;;;;;4104546;28;20074;-73
2021/10/20 03:12:41;;;;;;;7.47;6.68;;;14.70;99.90;;;;;;4124854;28;20038;-72
2021/10/20 03:14:42;;;;;;;13.15;6.90;;;14.80;99.90;;;;;;4113090;28;20031;-73
2021/10/20 03:16:43;;;;;;;7.63;6.80;;;14.90;99.90;;;;;;4117038;28;20046;-72
2021/10/20 03:18:43;;;;;;;11.80;7.72;;;14.90;99.90;;;;;;4103144;28;20034;-72
2021/10/20 03:20:44;;;;;;;8.45;7.28;;;14.90;99.90;;;;;;4123448;28;20031;-73
2021/10/20 03:22:46;;;;;;;8.38;7.05;;;14.80;99.90;;;;;;4129518;28;20088;-72
2021/10/20 03:24:47;;;;;;;11.13;7.73;;;14.80;99.90;;;;;;4117698;28;20038;-72
2021/10/20 03:26:48;;;;;;;10.20;6.32;;;14.80;99.90;;;;;;4114523;28;20034;-72
2021/10/20 03:28:49;;;;;;;9.20;6.35;;;14.80;99.90;;;;;;4114675;28;20426;-73
2021/10/20 03:30:50;;;;;;;6.25;5.38;;;15.00;99.90;;;;;;4114281;28;20050;-72
2021/10/20 03:32:51;;;;;;;8.63;7.32;;;15.00;99.90;;;;;;4114147;28;20031;-72
2021/10/20 03:34:52;;;;;;;10.90;7.95;;;15.00;99.90;;;;;;4130103;28;20026;-72
2021/10/20 03:36:53;;;;;;;10.18;7.78;;;14.90;99.90;;;;;;4114485;28;20043;-72
2021/10/20 03:38:53;;;;;;;9.52;6.82;;;14.80;99.90;;;;;;4129891;28;20030;-73
2021/10/20 03:40:54;;;;;;;9.80;7.65;;;14.80;99.90;;;;;;4113445;28;20046;-73
2021/10/20 03:42:55;;;;;;;8.48;6.78;;;14.80;99.90;;;;;;4113964;28;20457;-73
2021/10/20 03:44:56;;;;;;;11.63;7.72;;;14.80;99.90;;;;;;4120976;28;20062;-73
2021/10/20 03:46:57;;;;;;;19.38;8.52;;;14.90;99.90;;;;;;4120021;28;20145;-73
2021/10/20 03:48:58;;;;;;;10.60;7.30;;;14.90;99.90;;;;;;4128675;28;20030;-73
2021/10/20 03:50:59;;;;;;;11.23;8.13;;;15.00;99.90;;;;;;4115640;28;20077;-73
2021/10/20 03:53:00;;;;;;;9.50;7.50;;;14.90;99.90;;;;;;4105084;28;20047;-73
2021/10/20 03:55:04;;;;;;;9.65;7.10;;;15.00;99.90;;;;;;4114424;28;20039;-73
2021/10/20 03:57:05;;;;;;;13.23;8.10;;;15.10;99.90;;;;;;4127285;28;20042;-73
2021/10/20 03:59:05;;;;;;;10.82;7.68;;;15.20;99.90;;;;;;4114045;28;20117;-73
2021/10/20 04:01:06;;;;;;;14.25;8.88;;;15.20;99.90;;;;;;4111419;28;20042;-73
2021/10/20 04:03:07;;;;;;;9.02;7.57;;;15.20;99.90;;;;;;4115151;28;20051;-73
2021/10/20 04:05:12;;;;;;;10.43;8.23;;;15.20;99.90;;;;;;4115729;28;20035;-73
2021/10/20 04:07:13;;;;;;;11.60;8.30;;;15.20;99.90;;;;;;4122029;28;20042;-73
2021/10/20 04:09:14;;;;;;;9.18;7.65;;;15.10;99.90;;;;;;4104550;28;20031;-72
2021/10/20 04:11:15;;;;;;;11.98;8.73;;;15.10;99.90;;;;;;4124285;28;20140;-72
2021/10/20 04:13:16;;;;;;;9.32;8.30;;;15.10;99.90;;;;;;4114760;28;20046;-72
2021/10/20 04:15:20;;;;;;;8.73;7.80;;;15.00;99.90;;;;;;4114099;28;20038;-72
2021/10/20 04:17:21;;;;;;;10.23;8.07;;;15.10;99.90;;;;;;4113099;28;20038;-73
2021/10/20 04:19:22;;;;;;;13.35;8.88;;;15.10;99.90;;;;;;4098717;28;20039;-72
2021/10/20 04:21:22;;;;;;;8.68;7.18;;;15.10;99.90;;;;;;4096993;28;20042;-72
2021/10/20 04:23:23;;;;;;;9.57;7.93;;;15.20;99.90;;;;;;4115525;28;20073;-73
2021/10/20 04:25:24;;;;;;;9.85;8.32;;;15.10;99.90;;;;;;4128715;28;20034;-73
2021/10/20 04:27:25;;;;;;;13.30;8.20;;;15.20;99.90;;;;;;4114573;28;20039;-73
2021/10/20 04:29:26;;;;;;;12.15;8.02;;;15.30;99.90;;;;;;4128525;28;20080;-72
2021/10/20 04:31:27;;;;;;;12.02;7.93;;;15.30;99.90;;;;;;4108209;28;20090;-72
2021/10/20 04:33:27;;;;;;;10.70;8.70;;;15.30;99.90;;;;;;4105146;28;20046;-71
2021/10/20 04:35:28;;;;;;;13.43;9.52;;;15.20;99.90;;;;;;4125024;28;20085;-71
2021/10/20 04:37:29;;;;;;;9.82;8.65;;;15.10;99.90;;;;;;4115027;28;20038;-72
2021/10/20 04:39:29;;;;;;;11.35;8.52;;;15.00;99.90;;;;;;4108130;28;20039;-73
2021/10/20 04:41:30;;;;;;;11.88;8.75;;;15.00;99.90;;;;;;4097404;28;20083;-73
2021/10/20 04:43:31;;;;;;;9.73;7.97;;;15.00;99.90;;;;;;4103693;28;20043;-71
2021/10/20 04:45:31;;;;;;;12.52;8.80;;;15.00;99.90;;;;;;4122389;28;20066;-72
2021/10/20 04:47:32;;;;;;;11.75;8.35;;;15.10;99.90;;;;;;4112913;28;20494;-72
2021/10/20 04:49:33;;;;;;;9.60;8.45;;;15.10;99.90;;;;;;4113233;28;20062;-73
2021/10/20 04:51:34;;;;;;;9.65;8.00;;;15.10;99.90;;;;;;4112595;28;20042;-73
2021/10/20 04:53:35;;;;;;;12.13;8.75;;;15.00;99.90;;;;;;4113565;28;20039;-73
2021/10/20 04:55:36;;;;;;;12.73;8.65;;;15.00;99.90;;;;;;4110251;28;20043;-72
2021/10/20 04:57:36;;;;;;;9.85;8.55;;;14.90;99.90;;;;;;4115300;28;20121;-72
2021/10/20 04:59:37;;;;;;;12.35;7.75;;;15.00;99.90;;;;;;4099968;28;20041;-72
2021/10/20 05:01:38;;;;;;;11.30;8.85;;;15.00;99.90;;;;;;4113118;28;20035;-73
2021/10/20 05:03:39;;;;;;;10.93;8.88;;;15.00;99.90;;;;;;4113838;28;20031;-73
2021/10/20 05:05:40;;;;;;;10.30;8.30;;;15.00;99.90;;;;;;4110560;28;20177;-72
2021/10/20 05:07:55;;;;;;;14.20;8.82;;;14.90;99.90;;;;;;4114352;28;20123;-73
2021/10/20 05:09:55;;;;;;;12.00;8.63;;;15.00;99.90;;;;;;4112387;28;20082;-73
2021/10/20 05:11:56;;;;;;;11.07;8.15;;;15.10;99.90;;;;;;4112935;28;20179;-73
2021/10/20 05:13:57;;;;;;;12.65;9.80;;;15.20;99.90;;;;;;4114483;28;20043;-72
2021/10/20 05:15:58;;;;;;;15.38;8.68;;;15.20;99.90;;;;;;4128464;28;20038;-71
2021/10/20 05:17:59;;;;;;;11.02;8.88;;;15.20;99.90;;;;;;4107624;28;20121;-72
2021/10/20 05:19:59;;;;;;;13.70;8.73;;;15.20;99.90;;;;;;4115963;28;20030;-72
2021/10/20 05:22:01;;;;;;;15.15;8.65;;;15.20;99.90;;;;;;4110555;28;20043;-72
2021/10/20 05:24:01;;;;;;;14.07;9.60;;;15.20;99.90;;;;;;4112773;28;20121;-72
2021/10/20 05:26:02;;;;;;;10.77;8.80;;;15.30;99.90;;;;;;4118548;28;20046;-72
2021/10/20 05:28:05;;;;;;;12.30;9.50;;;15.30;99.90;;;;;;4112683;28;20484;-73
2021/10/20 05:30:08;;;;;;;16.23;10.05;;;15.30;99.90;;;;;;4103862;28;20043;-72
2021/10/20 05:32:09;;;;;;;11.63;9.45;;;15.40;99.90;;;;;;4121125;28;20089;-74
2021/10/20 05:34:09;;;;;;;10.80;8.55;;;15.30;99.90;;;;;;4103809;28;20039;-73
2021/10/20 05:36:10;;;;;;;11.48;9.93;;;15.30;99.90;;;;;;4106694;28;20045;-71
2021/10/20 05:38:11;;;;;;;10.63;8.95;;;15.40;99.90;;;;;;4126316;28;20192;-72
2021/10/20 05:40:12;;;;;;;9.20;7.78;;;15.40;99.90;;;;;;4115070;28;20038;-73
2021/10/20 05:42:13;;;;;;;14.40;9.35;;;15.40;99.90;;;;;;4108900;28;20055;-73
2021/10/20 05:44:14;;;;;;;12.27;8.75;;;15.40;99.90;;;;;;4112212;28;20053;-73
2021/10/20 05:46:15;;;;;;;13.60;8.23;;;15.40;99.90;;;;;;4111539;28;20467;-73
2021/10/20 05:48:16;;;;;;;9.82;7.80;;;15.50;99.90;;;;;;4115863;28;20046;-73
2021/10/20 05:50:17;;;;;;;10.88;7.13;;;15.60;99.90;;;;;;4111542;28;20035;-71
2021/10/20 05:52:17;;;;;;;11.40;9.43;;;15.60;99.90;;;;;;4113835;28;20462;-73
2021/10/20 05:54:18;;;;;;;12.13;7.97;;;15.60;99.90;;;;;;4112236;28;20152;-73
2021/10/20 05:56:19;;;;;;;10.43;8.32;;;15.60;99.90;;;;;;4112300;28;20086;-74
2021/10/20 05:58:20;;;;;;;13.05;8.70;;;15.60;99.90;;;;;;4112679;28;20413;-73
2021/10/20 06:00:21;;;;;;;12.43;9.57;;;15.60;99.90;;;;;;4110384;28;20039;-73
2021/10/20 06:02:22;;;;;;;12.82;8.93;;;15.70;99.90;;;;;;4113391;28;20043;-73
2021/10/20 06:04:22;;;;;;;9.57;7.70;;;15.80;99.90;;;;;;4113879;28;20041;-73
2021/10/20 06:06:25;;;;;;;11.45;8.45;;;15.80;99.90;;;;;;4112672;28;20038;-71
2021/10/20 06:08:25;;;;;;;16.42;9.10;;;15.70;99.90;;;;;;4126487;28;20093;-71
2021/10/20 06:10:26;;;;;;;12.35;7.93;;;15.70;99.90;;;;;;4109827;28;20039;-73
2021/10/20 06:12:27;;;;;;;11.93;7.93;;;15.60;99.90;;;;;;4121994;28;20045;-72
2021/10/20 06:14:29;;;;;;;10.90;9.57;;;15.70;99.90;;;;;;4114478;28;20062;-73
2021/10/20 06:16:32;;;;;;;9.60;8.32;;;15.70;99.90;;;;;;4111982;28;20050;-73
2021/10/20 06:18:33;;;;;;;8.43;7.18;;;15.80;99.90;;;;;;4130375;28;20033;-72
2021/10/20 06:20:34;;;;;;;12.80;8.15;;;15.70;99.90;;;;;;4100441;28;20047;-73
2021/10/20 06:22:35;;;;;;;11.35;8.30;;;15.70;99.90;;;;;;4107651;28;20073;-72
2021/10/20 06:24:35;;;;;;;12.30;8.65;;;15.70;99.90;;;;;;4113989;28;20244;-72
2021/10/20 06:26:36;;;;;;;14.00;7.68;;;15.80;99.90;;;;;;4109714;28;20065;-72
2021/10/20 06:28:37;;;;;;;11.52;7.50;;;15.80;99.90;;;;;;4110540;28;20122;-72
2021/10/20 06:30:38;;;;;;;9.95;8.00;;;15.70;99.90;;;;;;4111924;28;20030;-72
2021/10/20 06:32:42;;;;;;;10.80;7.70;;;15.60;99.90;;;;;;4112103;28;20070;-72
2021/10/20 06:34:42;;;;;;;8.48;7.68;;;15.60;99.90;;;;;;4112403;28;20478;-72
2021/10/20 06:36:43;;;;;;;11.98;8.55;;;15.60;99.90;;;;;;4112210;28;20049;-73
2021/10/20 06:38:44;;;;;;;16.15;8.20;;;15.60;99.90;;;;;;4098133;28;20039;-72
2021/10/20 06:40:45;;;;;;;10.73;8.60;;;15.60;99.90;;;;;;4129251;28;20038;-72
2021/10/20 06:42:45;;;;;;;11.77;8.68;;;15.50;99.90;;;;;;4116280;28;20034;-72
2021/10/20 06:44:46;;;;;;;9.95;8.02;;;15.50;99.90;;;;;;4102826;28;20042;-73
2021/10/20 06:46:48;;;;;;;10.65;8.70;;;15.40;99.90;;;;;;4130347;28;20401;-72
2021/10/20 06:48:49;;;;;;;11.98;8.27;;;15.30;99.90;;;;;;4114606;28;20034;-73
2021/10/20 06:50:49;;;;;;;11.65;8.68;;;15.40;99.90;;;;;;4123249;28;20045;-72
2021/10/20 06:52:50;;;;;;;11.02;7.35;;;15.40;99.90;;;;;;4115985;28;20034;-72
2021/10/20 06:54:51;;;;;;;10.00;8.80;;;15.50;99.90;;;;;;4112070;28;20043;-72
2021/10/20 06:56:52;;;;;;;10.85;7.93;;;15.50;99.90;;;;;;4132533;28;20058;-73
2021/10/20 06:58:53;;;;;;;12.43;8.45;;;15.50;99.90;;;;;;4114201;28;20038;-72
2021/10/20 07:00:54;;;;;;;10.30;8.27;;;15.50;99.90;;;;;;4100903;28;20125;-72
2021/10/20 07:02:55;;;;;;;8.88;7.97;;;15.60;99.90;;;;;;4114496;28;20073;-73
2021/10/20 07:04:55;;;;;;;11.85;7.53;;;15.70;99.90;;;;;;4116512;28;20054;-73
2021/10/20 07:06:57;;;;;;;11.77;8.07;;;15.80;99.90;;;;;;4128304;28;20049;-72
2021/10/20 07:08:58;;;;;;;15.57;8.27;;;15.80;99.90;;;;;;4116148;28;20065;-72
2021/10/20 07:10:59;;;;;;;16.85;8.13;;;15.80;99.90;;;;;;4114514;28;20034;-73
2021/10/20 07:12:59;;;;;;;8.95;8.00;;;15.60;99.90;;;;;;4116506;28;20052;-73
2021/10/20 07:15:00;;;;;;;11.55;8.18;;;15.50;99.90;;;;;;4115476;28;20078;-72
2021/10/20 07:17:04;;;;;;;9.95;7.85;;;15.40;99.90;;;;;;4101885;28;20047;-72
2021/10/20 07:19:07;;;;;;;9.23;7.78;;;15.40;99.90;;;;;;4114558;28;20197;-73
2021/10/20 07:21:08;;;;;;;12.88;9.13;;;15.40;99.90;;;;;;4113208;28;20450;-73
2021/10/20 07:23:08;;;;;;;11.98;9.18;;;15.20;99.90;;;;;;4127510;28;20026;-73
2021/10/20 07:25:13;;;;;;;11.77;9.27;;;15.10;99.90;;;;;;4114733;28;20057;-72
2021/10/20 07:27:14;;;;;;;14.60;9.30;;;15.10;99.90;;;;;;4129625;28;20030;-72
2021/10/20 07:29:16;;;;;;;11.52;9.85;;;15.10;99.90;;;;;;4114752;28;20066;-73
2021/10/20 07:31:17;;;;;;;16.73;10.25;;;15.00;99.90;;;;;;4127023;28;20054;-72
2021/10/20 07:33:18;;;;;;;13.20;9.27;;;14.80;99.90;;;;;;4114181;28;20023;-72
2021/10/20 07:35:19;;;;;;;11.95;10.57;;;14.70;99.90;;;;;;4111274;28;20077;-73
2021/10/20 07:37:20;;;;;;;17.42;9.85;;;14.60;99.90;;;;;;4111135;28;20078;-72
2021/10/20 07:39:21;;;;;;;14.32;10.23;;;14.60;99.90;;;;;;4113762;28;20074;-73
2021/10/20 07:41:22;;;;;;;11.20;10.00;;;14.60;99.90;;;;;;4125025;28;20081;-72
2021/10/20 07:43:22;;;;;;;11.65;9.80;;;14.70;99.90;;;;;;4110646;28;20146;-73
2021/10/20 07:45:24;;;;;;;11.20;8.73;;;14.70;99.90;;;;;;4115023;28;20046;-72
2021/10/20 07:47:26;;;;;;;13.70;10.05;;;14.80;99.90;;;;;;4128718;28;20070;-72
2021/10/20 07:49:27;;;;;;;15.55;10.57;;;14.80;99.90;;;;;;4097220;28;20078;-72
2021/10/20 07:51:28;;;;;;;17.48;10.20;;;14.80;99.90;;;;;;4127857;28;20046;-73
2021/10/20 07:53:28;;;;;;;15.52;10.15;;;15.00;99.90;;;;;;4114438;28;20045;-74
2021/10/20 07:55:31;;;;;;;14.50;10.13;;;15.00;99.90;;;;;;4113914;28;20035;-72
2021/10/20 07:57:34;;;;;;;12.68;9.68;;;15.10;99.90;;;;;;4111807;28;20085;-73
2021/10/20 07:59:35;;;;;;;13.15;10.15;;;15.10;99.90;;;;;;4113472;28;20066;-72
2021/10/20 08:01:36;;;;;;;11.88;10.60;;;15.00;99.90;;;;;;4110615;28;20035;-72
2021/10/20 08:03:37;;;;;;;14.77;10.57;;;15.00;99.90;;;;;;4114558;28;20062;-72
2021/10/20 08:05:38;;;;;;;12.75;10.20;;;14.90;99.90;;;;;;4088224;28;20519;-72
2021/10/20 08:07:44;;;;;;;11.75;10.52;;;14.90;99.90;;;;;;4123926;28;20038;-72
2021/10/20 08:09:46;;;;;;;14.55;10.57;;;14.90;99.90;;;;;;4113933;28;20046;-72
2021/10/20 08:11:47;;;;;;;16.90;10.17;;;15.00;99.90;;;;;;4111932;28;20425;-71
2021/10/20 08:13:48;;;;;;;15.10;10.35;;;14.90;99.90;;;;;;4125518;28;20282;-71
2021/10/20 08:15:49;;;;;;;14.90;10.93;;;15.00;99.90;;;;;;4122759;28;20046;-71
2021/10/20 08:17:51;;;;;;;12.93;9.80;;;15.10;99.90;;;;;;4108843;28;20034;-72
2021/10/20 08:19:52;;;;;;;10.32;9.15;;;15.20;99.90;;;;;;4125879;28;20046;-71
2021/10/20 08:21:52;;;;;;;12.13;9.00;;;15.30;99.90;;;;;;4113426;28;20068;-72
2021/10/20 08:23:54;;;;;;;11.32;9.93;;;15.40;99.90;;;;;;4112293;28;20038;-72
2021/10/20 08:25:55;;;;;;;11.52;9.98;;;15.40;99.90;;;;;;4098016;28;20152;-71
2021/10/20 08:27:56;;;;;;;12.70;9.40;;;15.60;99.90;;;;;;4109005;28;20099;-71
2021/10/20 08:29:57;;;;;;;12.60;9.77;;;15.70;99.90;;;;;;4111710;28;20042;-71
2021/10/20 08:31:57;;;;;;;10.32;8.63;;;15.70;99.90;;;;;;4110950;28;20467;-71
2021/10/20 08:33:58;;;;;;;10.93;8.80;;;15.70;99.90;;;;;;4115097;28;20121;-73
2021/10/20 08:35:59;;;;;;;12.25;8.13;;;15.80;99.90;;;;;;4111730;28;20043;-73
2021/10/20 08:38:01;;;;;;;16.15;10.82;;;15.90;99.90;;;;;;4115146;28;20053;-71
2021/10/20 08:40:02;;;;;;;10.45;8.95;;;16.00;99.90;;;;;;4108752;28;20036;-72
2021/10/20 08:42:04;;;;;;;14.45;10.00;;;16.10;99.90;;;;;;4108013;28;20524;-73
2021/10/20 08:44:05;;;;;;;13.80;9.95;;;16.10;99.90;;;;;;4130406;28;20145;-72
2021/10/20 08:46:06;;;;;;;9.73;8.32;;;16.20;99.90;;;;;;4112870;28;20039;-71
2021/10/20 08:48:07;;;;;;;10.93;9.75;;;16.40;99.90;;;;;;4098037;28;20047;-71
2021/10/20 08:50:09;;;;;;;12.45;10.30;;;16.50;99.90;;;;;;4091834;28;20367;-72
2021/10/20 08:52:10;;;;;;;11.40;10.05;;;16.70;99.90;;;;;;4113640;28;20070;-72
2021/10/20 08:54:12;;;;;;;13.57;8.82;;;16.90;99.90;;;;;;4113478;28;20047;-72
2021/10/20 08:56:15;;;;;;;13.55;10.35;;;17.00;99.90;;;;;;4113044;28;20039;-72
2021/10/20 08:58:17;;;;;;;17.00;10.40;;;16.80;99.90;;;;;;4121685;28;20125;-71
2021/10/20 09:00:20;;;;;;;13.95;10.50;;;16.70;99.90;;;;;;4119987;28;20065;-71
2021/10/20 09:02:22;;;;;;;15.43;10.38;;;16.70;99.90;;;;;;4110072;28;20043;-72
2021/10/20 09:04:23;;;;;;;12.48;8.85;;;16.70;99.90;;;;;;4111519;28;20121;-72
2021/10/20 09:06:28;;;;;;;13.43;9.40;;;16.80;99.90;;;;;;4124119;28;20443;-72
2021/10/20 09:08:43;;;;;;;10.43;9.00;;;16.90;99.90;;;;;;4104943;28;20031;-71
2021/10/20 09:10:46;;;;;;;9.57;8.57;;;17.00;99.90;;;;;;4123643;28;20093;-72
2021/10/20 09:12:47;;;;;;;10.98;8.45;;;17.00;99.90;;;;;;4112414;28;20051;-72
2021/10/20 09:14:48;;;;;;;12.65;9.40;;;17.00;99.90;;;;;;4112259;28;20486;-72
2021/10/20 09:16:49;;;;;;;13.57;10.77;;;16.90;99.90;;;;;;4112182;28;20046;-72
2021/10/20 09:18:50;;;;;;;12.85;10.25;;;16.90;99.90;;;;;;4126684;28;20034;-72
2021/10/20 09:20:51;;;;;;;13.45;10.13;;;16.90;99.90;;;;;;4114623;28;20039;-72
2021/10/20 09:22:58;;;;;;;12.05;9.75;;;16.80;99.90;;;;;;4113413;28;20031;-73
2021/10/20 09:25:03;;;;;;;11.85;10.48;;;16.70;99.90;;;;;;4112963;28;20034;-72
2021/10/20 09:27:17;;;;;;;11.73;10.52;;;16.60;99.90;;;;;;4114802;28;20047;-73
2021/10/20 09:29:33;;;;;;;13.55;10.45;;;16.70;99.90;;;;;;4111559;28;20039;-73
2021/10/20 09:31:33;;;;;;;14.73;8.80;;;16.70;99.90;;;;;;4112469;28;20034;-73
2021/10/20 09:33:38;;;;;;;12.48;10.15;;;16.90;99.90;;;;;;4112106;28;20035;-71
2021/10/20 09:35:42;;;;;;;12.77;8.60;;;17.00;99.90;;;;;;4112841;28;20034;-72
2021/10/20 09:37:44;;;;;;;10.48;9.48;;;17.10;99.90;;;;;;4113830;28;20118;-72
2021/10/20 09:39:45;;;;;;;12.52;10.43;;;17.20;99.90;;;;;;4106208;28;20434;-73
2021/10/20 09:41:46;;;;;;;15.90;10.80;;;17.10;99.90;;;;;;4102020;28;20039;-73
2021/10/20 09:43:55;;;;;;;11.18;10.00;;;17.30;99.90;;;;;;4111627;28;20038;-72
2021/10/20 09:45:56;;;;;;;11.35;9.45;;;17.50;99.90;;;;;;4111399;28;20549;-72
2021/10/20 09:48:21;;;;;;;13.75;10.38;;;17.70;99.90;;;;;;4103995;28;20078;-71
2021/10/20 09:50:22;;;;;;;10.77;9.55;;;17.80;99.90;;;;;;4112462;28;20057;-72
2021/10/20 09:52:25;;;;;;;12.23;8.57;;;18.20;99.90;;;;;;4122357;28;20038;-72
2021/10/20 09:54:29;;;;;;;12.65;9.80;;;18.40;99.90;;;;;;4112409;28;20390;-73
2021/10/20 09:56:35;;;;;;;12.82;10.43;;;18.50;99.90;;;;;;4121434;28;20069;-73
2021/10/20 09:58:36;;;;;;;12.88;10.68;;;18.40;99.90;;;;;;4120371;28;20077;-72
2021/10/20 10:00:37;;;;;;;14.63;9.25;;;18.30;99.90;;;;;;4112662;28;20121;-71
2021/10/20 10:02:38;;;;;;;9.85;8.85;;;18.20;99.90;;;;;;4087544;28;20043;-72
2021/10/20 10:04:40;;;;;;;16.60;10.15;;;18.10;99.90;;;;;;4124112;28;20062;-72
2021/10/20 10:06:43;;;;;;;13.30;10.35;;;17.90;99.90;;;;;;4121360;28;20042;-72
2021/10/20 10:08:45;;;;;;;14.48;9.77;;;17.80;99.90;;;;;;4107269;28;20031;-72
2021/10/20 10:10:46;;;;;;;12.38;11.07;;;17.70;99.90;;;;;;4102645;28;20560;-73
2021/10/20 10:12:48;;;;;;;11.23;9.57;;;17.60;99.90;;;;;;4112765;28;20034;-71
2021/10/20 10:14:58;;;;;;;12.53;9.17;;;17.60;99.90;;;;;;4103267;28;20066;-71
2021/10/20 10:17:01;;;;;;;10.00;8.98;;;17.60;99.90;;;;;;4103380;28;20035;-72
2021/10/20 10:19:02;;;;;;;9.95;8.75;;;17.60;99.90;;;;;;4112561;28;20862;-71
2021/10/20 10:21:42;;;;;;;10.70;9.57;;;17.50;99.90;;;;;;4129769;28;20039;-72
2021/10/20 10:23:54;;;;;;;11.93;8.45;;;17.40;99.90;;;;;;4132246;28;20042;-72
2021/10/20 10:26:06;;;;;;;9.63;7.13;;;17.70;99.90;;;;;;4114866;28;20054;-72